Time;durP1;ratioP1;P1;durP2;ratioP2;P2;SDS_P1;SDS_P2;PMS_P1;PMS_P2;Temp;Humidity;BMP_temperature;BMP_pressure;BME280_temperature;BME280_humidity;BME280_pressure;Samples;Min_cycle;Max_cycle;Signal;HPM_P1;HPM_P2
2023/07/26 00:00:15;;;;;;;1.77;1.50;;;;;;;;;;5016319;28;25073;-66
2023/07/26 00:02:41;;;;;;;1.38;1.27;;;;;;;;;;5015346;28;25122;-67
2023/07/26 00:05:07;;;;;;;2.75;1.17;;;;;;;;;;5012727;28;25072;-68
2023/07/26 00:07:33;;;;;;;2.38;1.45;;;;;;;;;;5018751;28;25049;-67
2023/07/26 00:09:59;;;;;;;4.70;1.33;;;;;;;;;;5015952;28;25147;-67
2023/07/26 00:12:26;;;;;;;5.30;1.27;;;;;;;;;;5018514;28;25064;-66
2023/07/26 00:14:52;;;;;;;2.85;1.25;;;;;;;;;;5018597;28;25052;-68
2023/07/26 00:17:18;;;;;;;2.35;1.33;;;;;;;;;;5017317;28;25162;-67
2023/07/26 00:19:44;;;;;;;3.20;1.50;;;;;;;;;;5022488;28;25073;-68
2023/07/26 00:22:11;;;;;;;2.42;1.40;;;;;;;;;;5015388;28;25066;-67
2023/07/26 00:24:37;;;;;;;3.13;1.65;;;;;;;;;;5022487;28;25126;-67
2023/07/26 00:27:03;;;;;;;3.63;1.48;;;;;;;;;;5014707;28;25124;-68
2023/07/26 00:29:29;;;;;;;2.88;1.38;;;;;;;;;;5008219;28;25097;-67
2023/07/26 00:31:55;;;;;;;4.57;1.60;;;;;;;;;;5008454;28;25058;-67
2023/07/26 00:34:21;;;;;;;3.40;1.95;;;;;;;;;;5005656;28;25066;-67
2023/07/26 00:36:47;;;;;;;3.67;1.40;;;;;;;;;;5014095;28;25125;-68
2023/07/26 00:39:13;;;;;;;3.13;1.42;;;;;;;;;;5006670;28;25064;-69
2023/07/26 00:41:39;;;;;;;1.85;1.50;;;;;;;;;;5005306;28;25143;-68
2023/07/26 00:44:06;;;;;;;2.90;1.80;;;;;;;;;;5008213;28;25049;-67
2023/07/26 00:46:32;;;;;;;2.60;1.40;;;;;;;;;;5017040;28;25090;-67
2023/07/26 00:48:58;;;;;;;2.55;1.63;;;;;;;;;;5012405;28;25069;-68
2023/07/26 00:51:24;;;;;;;4.00;1.67;;;;;;;;;;5015067;28;25088;-68
2023/07/26 00:53:50;;;;;;;2.15;1.55;;;;;;;;;;4998649;28;25150;-69
2023/07/26 00:56:16;;;;;;;3.70;1.70;;;;;;;;;;5006167;28;25052;-69
2023/07/26 00:58:43;;;;;;;3.95;1.73;;;;;;;;;;5009329;28;25065;-68
2023/07/26 01:01:09;;;;;;;2.28;1.80;;;;;;;;;;5009792;28;25052;-68
2023/07/26 01:03:35;;;;;;;4.38;1.88;;;;;;;;;;5009075;28;25072;-68
2023/07/26 01:06:01;;;;;;;4.97;1.83;;;;;;;;;;5010050;28;25152;-70
2023/07/26 01:08:30;;;;;;;4.60;2.10;;;;;;;;;;5006548;28;25075;-68
2023/07/26 01:10:57;;;;;;;4.47;1.95;;;;;;;;;;5003912;28;25075;-68
2023/07/26 01:13:27;;;;;;;2.42;2.00;;;;;;;;;;5017738;28;25091;-68
2023/07/26 01:15:54;;;;;;;3.95;2.17;;;;;;;;;;5008882;28;25159;-68
2023/07/26 01:18:20;;;;;;;3.17;1.95;;;;;;;;;;5002427;28;25094;-67
2023/07/26 01:20:46;;;;;;;6.00;2.30;;;;;;;;;;5009272;28;25105;-67
2023/07/26 01:23:12;;;;;;;3.58;2.35;;;;;;;;;;5010104;28;25067;-68
2023/07/26 01:25:38;;;;;;;2.13;1.63;;;;;;;;;;5008611;28;25109;-68
2023/07/26 01:28:04;;;;;;;3.63;2.00;;;;;;;;;;5012814;28;25051;-69
2023/07/26 01:30:32;;;;;;;2.53;1.95;;;;;;;;;;5004933;28;25065;-68
2023/07/26 01:33:00;;;;;;;6.75;1.95;;;;;;;;;;5009997;28;25151;-67
2023/07/26 01:35:27;;;;;;;2.90;2.00;;;;;;;;;;5004904;28;25151;-68
2023/07/26 01:37:57;;;;;;;1.85;1.60;;;;;;;;;;5013250;28;25101;-68
2023/07/26 01:40:23;;;;;;;2.05;1.83;;;;;;;;;;4999175;28;25136;-66
2023/07/26 01:42:49;;;;;;;3.17;2.08;;;;;;;;;;5008242;28;25069;-68
2023/07/26 01:45:16;;;;;;;5.63;2.63;;;;;;;;;;5006000;28;25078;-68
2023/07/26 01:47:42;;;;;;;3.78;1.92;;;;;;;;;;5005633;28;25071;-70
2023/07/26 01:50:08;;;;;;;3.03;2.08;;;;;;;;;;5004717;28;25062;-66
2023/07/26 01:52:34;;;;;;;4.93;1.95;;;;;;;;;;5002363;28;25147;-68
2023/07/26 01:55:00;;;;;;;3.83;1.92;;;;;;;;;;5000952;28;25053;-68
2023/07/26 01:57:27;;;;;;;3.88;2.28;;;;;;;;;;5014711;28;25048;-66
2023/07/26 01:59:53;;;;;;;4.10;2.22;;;;;;;;;;5003412;28;25073;-68
2023/07/26 02:02:20;;;;;;;2.38;1.92;;;;;;;;;;5013278;28;25078;-67
2023/07/26 02:04:46;;;;;;;2.40;1.90;;;;;;;;;;5020364;28;25131;-67
2023/07/26 02:07:12;;;;;;;7.63;2.25;;;;;;;;;;5012235;28;25102;-68
2023/07/26 02:09:38;;;;;;;3.75;2.33;;;;;;;;;;5018165;28;25077;-68
2023/07/26 02:12:05;;;;;;;4.28;2.25;;;;;;;;;;5007126;28;25095;-68
2023/07/26 02:14:31;;;;;;;3.90;2.08;;;;;;;;;;5005327;28;25066;-68
2023/07/26 02:16:57;;;;;;;4.15;2.10;;;;;;;;;;5016007;28;25078;-67
2023/07/26 02:19:23;;;;;;;3.88;1.90;;;;;;;;;;5002552;28;25207;-68
2023/07/26 02:21:49;;;;;;;4.82;2.40;;;;;;;;;;5015110;28;25101;-68
2023/07/26 02:24:15;;;;;;;3.80;2.47;;;;;;;;;;5005344;28;25050;-67
2023/07/26 02:26:41;;;;;;;5.10;2.40;;;;;;;;;;5009207;28;25068;-69
2023/07/26 02:29:07;;;;;;;7.28;2.65;;;;;;;;;;5005933;28;25059;-71
2023/07/26 02:31:35;;;;;;;5.15;2.03;;;;;;;;;;4996756;28;25084;-71
2023/07/26 02:34:01;;;;;;;3.60;2.30;;;;;;;;;;5005091;28;25050;-67
2023/07/26 02:36:27;;;;;;;3.55;2.15;;;;;;;;;;5010172;28;25075;-68
2023/07/26 02:38:53;;;;;;;3.90;2.53;;;;;;;;;;5009650;28;25122;-69
2023/07/26 02:41:19;;;;;;;3.80;2.08;;;;;;;;;;5005456;28;25068;-68
2023/07/26 02:43:45;;;;;;;7.53;2.58;;;;;;;;;;5004805;28;25055;-68
2023/07/26 02:46:11;;;;;;;6.28;3.20;;;;;;;;;;5009742;28;25062;-66
2023/07/26 02:48:37;;;;;;;6.32;2.47;;;;;;;;;;5001819;28;25078;-68
2023/07/26 02:51:03;;;;;;;6.78;2.47;;;;;;;;;;5004452;28;25092;-68
2023/07/26 02:53:29;;;;;;;3.28;2.67;;;;;;;;;;5007837;28;25128;-68
2023/07/26 02:55:55;;;;;;;5.63;2.90;;;;;;;;;;5007497;28;25137;-67
2023/07/26 02:58:21;;;;;;;3.58;2.65;;;;;;;;;;4999086;28;25153;-70
2023/07/26 03:00:51;;;;;;;5.15;2.75;;;;;;;;;;5009185;28;25071;-66
2023/07/26 03:03:17;;;;;;;3.97;2.40;;;;;;;;;;5006731;28;25127;-68
2023/07/26 03:05:43;;;;;;;3.88;2.47;;;;;;;;;;5011232;28;25055;-71
2023/07/26 03:08:09;;;;;;;3.65;2.72;;;;;;;;;;5003593;28;25053;-68
2023/07/26 03:10:35;;;;;;;4.22;2.90;;;;;;;;;;5009683;28;25050;-67
2023/07/26 03:13:01;;;;;;;3.45;2.38;;;;;;;;;;5004531;28;25083;-68
2023/07/26 03:15:27;;;;;;;4.28;3.22;;;;;;;;;;5006657;28;25129;-68
2023/07/26 03:17:54;;;;;;;6.18;3.33;;;;;;;;;;5005973;28;24990;-68
2023/07/26 03:20:20;;;;;;;5.53;3.22;;;;;;;;;;5007695;28;25101;-68
2023/07/26 03:22:46;;;;;;;3.83;2.83;;;;;;;;;;5003420;28;25088;-69
2023/07/26 03:25:12;;;;;;;4.75;3.03;;;;;;;;;;5001184;28;25064;-68
2023/07/26 03:27:38;;;;;;;6.35;3.38;;;;;;;;;;5012272;28;25127;-66
2023/07/26 03:30:04;;;;;;;6.97;2.85;;;;;;;;;;5012123;28;25064;-68
2023/07/26 03:32:30;;;;;;;4.15;2.95;;;;;;;;;;5012848;28;25089;-68
2023/07/26 03:34:56;;;;;;;3.05;2.67;;;;;;;;;;5013238;28;25148;-69
2023/07/26 03:37:22;;;;;;;4.72;3.08;;;;;;;;;;5008547;28;25105;-68
2023/07/26 03:39:48;;;;;;;6.82;3.50;;;;;;;;;;5013344;28;25119;-68
2023/07/26 03:42:14;;;;;;;4.75;3.20;;;;;;;;;;5013071;28;25094;-68
2023/07/26 03:44:40;;;;;;;8.55;3.10;;;;;;;;;;5004086;28;25148;-68
2023/07/26 03:47:06;;;;;;;6.85;3.25;;;;;;;;;;5001657;28;25058;-66
2023/07/26 03:49:32;;;;;;;6.93;3.40;;;;;;;;;;5010657;28;25078;-69
2023/07/26 03:51:58;;;;;;;5.43;3.60;;;;;;;;;;5019267;28;25043;-68
2023/07/26 03:54:24;;;;;;;5.45;3.38;;;;;;;;;;5010625;28;25064;-67
2023/07/26 03:56:50;;;;;;;4.22;3.05;;;;;;;;;;5008490;28;25190;-69
2023/07/26 03:59:16;;;;;;;4.85;3.22;;;;;;;;;;5012466;28;25079;-67
2023/07/26 04:01:42;;;;;;;4.43;3.10;;;;;;;;;;5005820;28;25066;-69
2023/07/26 04:04:08;;;;;;;4.63;3.15;;;;;;;;;;5011698;28;25119;-68
2023/07/26 04:06:34;;;;;;;6.95;3.50;;;;;;;;;;5014464;28;25068;-68
2023/07/26 04:09:00;;;;;;;5.57;4.10;;;;;;;;;;5024304;28;25147;-68
2023/07/26 04:11:26;;;;;;;6.75;4.82;;;;;;;;;;5015718;28;25051;-69
2023/07/26 04:13:52;;;;;;;6.07;4.13;;;;;;;;;;5010684;28;25146;-67
2023/07/26 04:16:19;;;;;;;10.23;5.40;;;;;;;;;;5024649;28;25158;-68
2023/07/26 04:18:45;;;;;;;6.80;5.05;;;;;;;;;;5019463;28;25072;-68
2023/07/26 04:21:15;;;;;;;7.65;4.72;;;;;;;;;;5015992;28;25172;-68
2023/07/26 04:23:41;;;;;;;12.10;5.28;;;;;;;;;;5010105;28;25064;-68
2023/07/26 04:26:07;;;;;;;8.43;5.63;;;;;;;;;;5015221;28;25203;-68
2023/07/26 04:28:34;;;;;;;9.68;5.63;;;;;;;;;;5004185;28;25066;-68
2023/07/26 04:31:00;;;;;;;9.95;6.38;;;;;;;;;;5003672;28;25119;-68
2023/07/26 04:33:26;;;;;;;9.98;6.13;;;;;;;;;;5003958;28;25076;-69
2023/07/26 04:35:52;;;;;;;14.85;7.28;;;;;;;;;;4998298;28;25073;-71
2023/07/26 04:38:19;;;;;;;14.65;7.05;;;;;;;;;;5015263;28;25079;-68
2023/07/26 04:40:48;;;;;;;9.82;7.43;;;;;;;;;;5015110;28;25066;-72
2023/07/26 04:43:19;;;;;;;9.40;6.75;;;;;;;;;;5004693;28;25067;-69
2023/07/26 04:45:52;;;;;;;9.13;6.50;;;;;;;;;;4999220;28;25042;-71
2023/07/26 04:48:19;;;;;;;13.68;7.45;;;;;;;;;;5000901;28;25135;-68
2023/07/26 04:50:46;;;;;;;13.80;8.18;;;;;;;;;;5009187;28;25101;-72
2023/07/26 04:53:11;;;;;;;12.60;8.63;;;;;;;;;;5009210;28;25067;-68
2023/07/26 04:55:42;;;;;;;11.57;7.78;;;;;;;;;;5006857;28;25117;-71
2023/07/26 04:58:08;;;;;;;14.48;8.75;;;;;;;;;;4999998;28;25089;-70
2023/07/26 05:00:37;;;;;;;21.50;8.98;;;;;;;;;;5007431;28;25088;-67
2023/07/26 05:03:03;;;;;;;13.23;8.90;;;;;;;;;;4996545;28;25070;-67
2023/07/26 05:05:29;;;;;;;13.77;8.13;;;;;;;;;;5008646;28;25128;-68
2023/07/26 05:07:55;;;;;;;13.63;8.52;;;;;;;;;;5006578;28;25092;-69
2023/07/26 05:10:23;;;;;;;14.10;8.93;;;;;;;;;;5017603;28;25078;-70
2023/07/26 05:12:50;;;;;;;16.80;9.13;;;;;;;;;;5011986;28;25063;-68
2023/07/26 05:15:16;;;;;;;21.52;9.82;;;;;;;;;;5011365;28;25072;-70
2023/07/26 05:17:42;;;;;;;12.35;8.13;;;;;;;;;;5026240;28;25081;-70
2023/07/26 05:20:08;;;;;;;17.52;9.63;;;;;;;;;;5016036;28;25056;-70
2023/07/26 05:22:34;;;;;;;18.73;10.32;;;;;;;;;;5020169;28;25085;-70
2023/07/26 05:25:00;;;;;;;14.18;8.93;;;;;;;;;;5014053;28;25086;-67
2023/07/26 05:27:26;;;;;;;18.45;10.52;;;;;;;;;;5011767;28;25088;-67
2023/07/26 05:29:53;;;;;;;17.42;9.95;;;;;;;;;;5004988;28;25069;-68
2023/07/26 05:32:19;;;;;;;17.38;10.80;;;;;;;;;;5005724;28;25057;-68
2023/07/26 05:34:45;;;;;;;18.30;9.73;;;;;;;;;;5009434;28;25128;-69
2023/07/26 05:37:12;;;;;;;19.15;10.25;;;;;;;;;;5003322;28;25053;-69
2023/07/26 05:39:38;;;;;;;19.92;10.10;;;;;;;;;;5002526;28;25131;-70
2023/07/26 05:42:04;;;;;;;24.48;12.05;;;;;;;;;;4995604;28;25048;-69
2023/07/26 05:44:30;;;;;;;22.63;11.60;;;;;;;;;;5004182;28;25022;-70
2023/07/26 05:46:59;;;;;;;25.05;10.80;;;;;;;;;;5009474;28;25081;-70
2023/07/26 05:49:25;;;;;;;21.58;10.05;;;;;;;;;;5005665;28;25056;-69
2023/07/26 05:51:51;;;;;;;19.05;9.55;;;;;;;;;;5000907;28;25133;-68
2023/07/26 05:54:17;;;;;;;15.88;9.23;;;;;;;;;;5003038;28;25052;-69
2023/07/26 05:56:43;;;;;;;17.50;10.23;;;;;;;;;;4997871;28;25089;-69
2023/07/26 05:59:09;;;;;;;17.65;9.95;;;;;;;;;;5005095;28;25056;-69
2023/07/26 06:01:35;;;;;;;14.85;9.23;;;;;;;;;;5000426;28;25124;-69
2023/07/26 06:04:01;;;;;;;20.77;9.38;;;;;;;;;;4996055;28;25089;-69
2023/07/26 06:06:27;;;;;;;15.60;8.77;;;;;;;;;;5010201;28;25145;-68
2023/07/26 06:08:53;;;;;;;15.00;6.65;;;;;;;;;;5000334;28;25067;-70
2023/07/26 06:11:19;;;;;;;11.82;7.07;;;;;;;;;;5004829;28;25068;-68
2023/07/26 06:13:45;;;;;;;6.55;4.57;;;;;;;;;;4997848;28;25116;-69
2023/07/26 06:16:11;;;;;;;12.35;5.93;;;;;;;;;;5000425;28;25066;-69
2023/07/26 06:18:37;;;;;;;7.20;4.93;;;;;;;;;;5018005;28;25076;-70
2023/07/26 06:21:04;;;;;;;11.18;5.18;;;;;;;;;;5000119;28;25136;-69
2023/07/26 06:23:30;;;;;;;9.27;5.05;;;;;;;;;;5012957;28;25061;-69
2023/07/26 06:25:56;;;;;;;10.77;4.97;;;;;;;;;;5012006;28;25168;-68
2023/07/26 06:28:22;;;;;;;8.55;5.43;;;;;;;;;;5016060;28;25059;-69
2023/07/26 06:30:48;;;;;;;8.90;4.40;;;;;;;;;;5002699;28;25088;-69
2023/07/26 06:33:14;;;;;;;9.73;5.22;;;;;;;;;;5003337;28;25048;-67
2023/07/26 06:35:40;;;;;;;6.32;4.00;;;;;;;;;;5016511;28;25057;-67
2023/07/26 06:38:08;;;;;;;6.45;4.25;;;;;;;;;;5007342;28;25154;-68
2023/07/26 06:40:35;;;;;;;7.78;3.70;;;;;;;;;;5012270;28;25068;-67
2023/07/26 06:43:01;;;;;;;7.35;4.32;;;;;;;;;;5003302;28;25051;-70
2023/07/26 06:45:27;;;;;;;10.82;3.58;;;;;;;;;;5010648;28;25119;-68
2023/07/26 06:47:54;;;;;;;7.45;4.53;;;;;;;;;;5003317;28;25074;-67
2023/07/26 06:50:20;;;;;;;11.77;4.15;;;;;;;;;;5014943;28;25082;-68
2023/07/26 06:52:46;;;;;;;5.50;4.05;;;;;;;;;;5015172;28;25072;-66
2023/07/26 06:55:12;;;;;;;9.70;4.22;;;;;;;;;;5011826;28;25102;-68
2023/07/26 06:57:38;;;;;;;12.32;5.03;;;;;;;;;;5002713;28;25086;-67
2023/07/26 07:00:06;;;;;;;10.40;5.07;;;;;;;;;;5015024;28;25126;-67
2023/07/26 07:02:32;;;;;;;13.15;5.40;;;;;;;;;;5016621;28;25109;-68
2023/07/26 07:04:59;;;;;;;8.52;5.22;;;;;;;;;;5010367;28;25146;-68
2023/07/26 07:07:25;;;;;;;10.75;5.07;;;;;;;;;;5008673;28;25149;-67
2023/07/26 07:09:51;;;;;;;11.00;4.75;;;;;;;;;;5017797;28;25062;-67
2023/07/26 07:12:17;;;;;;;12.57;5.30;;;;;;;;;;5002402;28;25066;-69
2023/07/26 07:14:43;;;;;;;11.02;4.65;;;;;;;;;;5001638;28;25061;-69
2023/07/26 07:17:09;;;;;;;10.15;5.15;;;;;;;;;;5011337;28;25065;-67
2023/07/26 07:19:35;;;;;;;8.27;4.43;;;;;;;;;;4996863;28;25083;-68
2023/07/26 07:22:01;;;;;;;11.27;5.20;;;;;;;;;;5003476;28;25043;-67
2023/07/26 07:24:27;;;;;;;8.68;5.00;;;;;;;;;;5022543;28;25075;-66
2023/07/26 07:26:53;;;;;;;8.02;4.60;;;;;;;;;;5015608;28;25059;-66
2023/07/26 07:29:19;;;;;;;7.32;4.22;;;;;;;;;;5006877;28;25095;-66
2023/07/26 07:31:45;;;;;;;8.23;4.55;;;;;;;;;;5005087;28;25100;-66
2023/07/26 07:34:11;;;;;;;8.27;3.75;;;;;;;;;;5000960;28;25058;-66
2023/07/26 07:36:38;;;;;;;5.10;3.65;;;;;;;;;;5005973;28;25055;-67
2023/07/26 07:39:07;;;;;;;9.65;4.22;;;;;;;;;;5008645;28;25056;-68
2023/07/26 07:41:33;;;;;;;8.30;3.92;;;;;;;;;;5002455;28;25106;-67
2023/07/26 07:43:59;;;;;;;8.52;3.60;;;;;;;;;;5012509;28;25096;-66
2023/07/26 07:46:28;;;;;;;8.00;2.95;;;;;;;;;;5015305;28;25073;-67
2023/07/26 07:48:54;;;;;;;7.47;3.53;;;;;;;;;;5003682;28;25104;-66
2023/07/26 07:51:21;;;;;;;7.90;4.55;;;;;;;;;;4999212;28;25150;-66
2023/07/26 07:53:48;;;;;;;7.65;4.35;;;;;;;;;;5003984;28;25090;-66
2023/07/26 07:56:14;;;;;;;10.32;3.65;;;;;;;;;;5005293;28;25099;-66
2023/07/26 07:58:40;;;;;;;8.10;2.95;;;;;;;;;;5004999;28;25114;-67
2023/07/26 08:01:06;;;;;;;7.22;3.63;;;;;;;;;;5009452;28;25050;-66
2023/07/26 08:03:32;;;;;;;9.77;4.03;;;;;;;;;;5019055;28;25078;-68
2023/07/26 08:05:58;;;;;;;6.50;3.30;;;;;;;;;;5008223;28;25087;-67
2023/07/26 08:08:24;;;;;;;9.85;4.10;;;;;;;;;;5018292;28;25087;-68
2023/07/26 08:10:50;;;;;;;9.63;3.72;;;;;;;;;;5013417;28;25099;-66
2023/07/26 08:13:16;;;;;;;6.95;3.55;;;;;;;;;;5007105;28;25069;-67
2023/07/26 08:15:42;;;;;;;6.80;3.30;;;;;;;;;;5002385;28;25061;-66
2023/07/26 08:18:08;;;;;;;6.40;3.17;;;;;;;;;;5010091;28;25086;-66
2023/07/26 08:20:37;;;;;;;6.93;3.70;;;;;;;;;;5014527;28;25095;-68
2023/07/26 08:23:04;;;;;;;6.75;4.03;;;;;;;;;;5015460;28;25141;-71
2023/07/26 08:25:30;;;;;;;4.10;2.85;;;;;;;;;;5009771;28;25098;-69
2023/07/26 08:27:56;;;;;;;7.18;3.10;;;;;;;;;;5009080;28;25080;-66
2023/07/26 08:30:22;;;;;;;7.07;3.70;;;;;;;;;;5006885;28;25046;-67
2023/07/26 08:32:48;;;;;;;8.43;3.22;;;;;;;;;;5001551;28;25133;-67
2023/07/26 08:35:14;;;;;;;9.25;3.92;;;;;;;;;;5022653;28;25068;-66
2023/07/26 08:37:40;;;;;;;9.45;3.70;;;;;;;;;;5012073;28;25077;-67
2023/07/26 08:40:07;;;;;;;9.10;3.40;;;;;;;;;;4998491;28;25135;-67
2023/07/26 08:42:33;;;;;;;8.23;3.80;;;;;;;;;;5008786;28;25059;-67
2023/07/26 08:45:00;;;;;;;6.07;3.20;;;;;;;;;;5015502;28;25084;-70
2023/07/26 08:47:26;;;;;;;7.18;3.63;;;;;;;;;;5008121;28;25052;-69
2023/07/26 08:49:53;;;;;;;5.03;3.00;;;;;;;;;;5013653;28;25055;-66
2023/07/26 08:52:19;;;;;;;6.28;3.20;;;;;;;;;;5012017;28;25107;-66
2023/07/26 08:54:46;;;;;;;4.55;3.00;;;;;;;;;;5007431;28;25056;-67
2023/07/26 08:57:13;;;;;;;5.93;3.10;;;;;;;;;;5007889;28;25112;-67
2023/07/26 08:59:39;;;;;;;6.13;3.53;;;;;;;;;;5009783;28;25064;-67
2023/07/26 09:02:06;;;;;;;6.72;3.60;;;;;;;;;;5004115;28;25055;-67
2023/07/26 09:04:32;;;;;;;4.75;2.88;;;;;;;;;;5005162;28;25074;-67
2023/07/26 09:07:02;;;;;;;19.05;4.93;;;;;;;;;;5005588;28;25100;-67
2023/07/26 09:09:28;;;;;;;9.23;3.13;;;;;;;;;;5004832;28;25150;-67
2023/07/26 09:11:54;;;;;;;7.93;4.03;;;;;;;;;;5011278;28;25051;-67
2023/07/26 09:14:26;;;;;;;7.68;3.33;;;;;;;;;;5010329;28;25070;-68
2023/07/26 09:16:55;;;;;;;5.68;3.42;;;;;;;;;;5008613;28;25058;-67
2023/07/26 09:19:27;;;;;;;5.55;3.58;;;;;;;;;;5004203;28;25076;-68
2023/07/26 09:21:56;;;;;;;5.22;2.92;;;;;;;;;;5015094;28;25071;-69
2023/07/26 09:24:28;;;;;;;4.78;3.05;;;;;;;;;;5011382;28;25060;-67
2023/07/26 09:27:02;;;;;;;6.03;3.13;;;;;;;;;;5014110;28;25062;-67
2023/07/26 09:29:28;;;;;;;6.70;3.13;;;;;;;;;;5024345;28;25084;-67
2023/07/26 09:31:54;;;;;;;5.25;3.90;;;;;;;;;;5003499;28;25073;-68
2023/07/26 09:34:21;;;;;;;9.32;3.65;;;;;;;;;;5008688;28;25086;-65
2023/07/26 09:36:48;;;;;;;8.70;3.40;;;;;;;;;;4997474;28;25133;-67
2023/07/26 09:39:14;;;;;;;4.85;3.10;;;;;;;;;;5007551;28;25068;-70
2023/07/26 09:41:41;;;;;;;5.88;2.60;;;;;;;;;;5006706;28;25068;-67
2023/07/26 09:44:07;;;;;;;10.35;2.80;;;;;;;;;;5010541;28;25149;-67
2023/07/26 09:46:47;;;;;;;5.43;3.20;;;;;;;;;;5012356;28;25154;-66
2023/07/26 09:49:13;;;;;;;4.72;2.72;;;;;;;;;;5006771;28;25053;-65
2023/07/26 09:51:39;;;;;;;9.77;3.28;;;;;;;;;;5021428;28;25083;-66
2023/07/26 09:54:05;;;;;;;10.20;3.83;;;;;;;;;;4999209;28;25138;-67
2023/07/26 09:56:34;;;;;;;6.95;2.75;;;;;;;;;;5014445;28;25135;-66
2023/07/26 09:59:01;;;;;;;4.07;2.17;;;;;;;;;;5016480;28;25147;-69
2023/07/26 10:01:29;;;;;;;4.65;2.80;;;;;;;;;;5008081;28;25102;-64
2023/07/26 10:03:56;;;;;;;4.70;2.55;;;;;;;;;;5013962;28;25070;-65
2023/07/26 10:06:23;;;;;;;4.30;2.50;;;;;;;;;;5012191;28;25052;-66
2023/07/26 10:08:50;;;;;;;4.28;2.30;;;;;;;;;;5005380;28;25098;-67
2023/07/26 10:11:17;;;;;;;6.72;2.83;;;;;;;;;;5009698;28;25078;-66
2023/07/26 10:13:44;;;;;;;2.83;2.53;;;;;;;;;;5005681;28;25128;-65
2023/07/26 10:16:11;;;;;;;3.33;2.33;;;;;;;;;;5011184;28;25055;-65
2023/07/26 10:18:37;;;;;;;3.70;2.25;;;;;;;;;;5014827;28;25129;-66
2023/07/26 10:21:05;;;;;;;4.85;2.45;;;;;;;;;;5009304;28;25072;-64
2023/07/26 10:23:31;;;;;;;4.20;2.38;;;;;;;;;;5006484;28;25064;-66
2023/07/26 10:25:58;;;;;;;5.30;2.13;;;;;;;;;;5009638;28;25074;-65
2023/07/26 10:28:24;;;;;;;4.85;2.60;;;;;;;;;;5006464;28;25073;-65
2023/07/26 10:30:52;;;;;;;9.05;2.63;;;;;;;;;;5012772;28;25050;-65
2023/07/26 10:33:18;;;;;;;5.75;2.80;;;;;;;;;;5010940;28;25051;-67
2023/07/26 10:35:44;;;;;;;5.80;2.72;;;;;;;;;;5006290;28;25127;-66
2023/07/26 10:38:13;;;;;;;6.03;3.15;;;;;;;;;;5004972;28;25078;-65
2023/07/26 10:40:39;;;;;;;5.90;2.60;;;;;;;;;;4999656;28;25143;-66
2023/07/26 10:43:21;;;;;;;5.20;2.58;;;;;;;;;;5007534;28;25071;-65
2023/07/26 10:45:48;;;;;;;3.28;2.45;;;;;;;;;;4995169;28;25056;-66
2023/07/26 10:48:16;;;;;;;3.60;2.35;;;;;;;;;;5010201;28;25064;-65
2023/07/26 10:50:42;;;;;;;3.60;2.03;;;;;;;;;;5010841;28;25077;-65
2023/07/26 10:53:28;;;;;;;4.78;2.72;;;;;;;;;;5009719;28;25068;-66
2023/07/26 10:55:56;;;;;;;5.82;3.38;;;;;;;;;;5008208;28;25058;-64
2023/07/26 10:58:22;;;;;;;6.82;2.42;;;;;;;;;;5013840;28;25150;-66
2023/07/26 11:00:48;;;;;;;4.68;1.98;;;;;;;;;;5013699;28;25111;-66
2023/07/26 11:03:14;;;;;;;4.07;2.58;;;;;;;;;;5004795;28;25068;-67
2023/07/26 11:05:40;;;;;;;6.18;2.30;;;;;;;;;;5005914;28;25056;-65
2023/07/26 11:08:07;;;;;;;5.60;2.53;;;;;;;;;;5020790;28;25171;-67
2023/07/26 11:10:35;;;;;;;5.93;2.47;;;;;;;;;;5013289;28;25075;-67
2023/07/26 11:13:11;;;;;;;4.72;2.55;;;;;;;;;;5020282;28;25124;-68
2023/07/26 11:15:41;;;;;;;6.75;2.75;;;;;;;;;;5014726;28;25147;-66
2023/07/26 11:18:08;;;;;;;4.05;2.13;;;;;;;;;;5022792;28;25098;-67
2023/07/26 11:20:37;;;;;;;5.03;3.03;;;;;;;;;;5013922;28;25071;-67
2023/07/26 11:23:14;;;;;;;3.92;2.05;;;;;;;;;;5020022;28;25096;-67
2023/07/26 11:25:40;;;;;;;3.13;2.15;;;;;;;;;;5016909;28;25159;-65
2023/07/26 11:28:06;;;;;;;3.22;2.13;;;;;;;;;;5009670;28;25152;-68
2023/07/26 11:30:32;;;;;;;2.97;2.00;;;;;;;;;;5019737;28;25114;-67
2023/07/26 11:32:58;;;;;;;3.40;2.15;;;;;;;;;;5018063;28;25059;-65
2023/07/26 11:35:24;;;;;;;7.53;2.72;;;;;;;;;;5013915;28;25050;-67
2023/07/26 11:37:53;;;;;;;3.28;2.83;;;;;;;;;;5010567;28;25067;-66
2023/07/26 11:40:19;;;;;;;3.85;2.58;;;;;;;;;;5023431;28;25066;-65
2023/07/26 11:42:45;;;;;;;5.00;2.80;;;;;;;;;;5008945;28;25153;-64
2023/07/26 11:45:12;;;;;;;3.55;2.20;;;;;;;;;;5026654;28;25069;-66
2023/07/26 11:47:39;;;;;;;4.28;2.22;;;;;;;;;;5016965;28;25069;-64
2023/07/26 11:50:05;;;;;;;2.70;2.20;;;;;;;;;;5014041;28;25075;-65
2023/07/26 11:52:31;;;;;;;5.93;2.85;;;;;;;;;;5015465;28;25082;-66
2023/07/26 11:55:00;;;;;;;5.47;2.72;;;;;;;;;;5015705;28;25182;-67
2023/07/26 11:57:27;;;;;;;7.57;2.88;;;;;;;;;;5014836;28;25069;-66
2023/07/26 11:59:54;;;;;;;3.30;2.10;;;;;;;;;;5012073;28;25053;-66
2023/07/26 12:02:20;;;;;;;2.50;1.70;;;;;;;;;;5013792;28;25054;-66
2023/07/26 12:05:05;;;;;;;4.65;1.85;;;;;;;;;;5009834;28;25053;-64
2023/07/26 12:07:31;;;;;;;5.65;2.28;;;;;;;;;;5004816;28;25100;-65
2023/07/26 12:09:57;;;;;;;7.10;2.83;;;;;;;;;;5012658;28;25074;-64
2023/07/26 12:12:23;;;;;;;7.15;2.67;;;;;;;;;;5013558;28;25094;-66
2023/07/26 12:14:50;;;;;;;3.78;2.33;;;;;;;;;;5011625;28;25081;-66
2023/07/26 12:17:16;;;;;;;3.40;2.90;;;;;;;;;;5013480;28;25129;-66
2023/07/26 12:19:45;;;;;;;4.30;2.35;;;;;;;;;;5012271;28;25074;-64
2023/07/26 12:22:11;;;;;;;3.92;2.35;;;;;;;;;;5008256;28;25068;-65
2023/07/26 12:24:50;;;;;;;4.13;2.53;;;;;;;;;;5020142;28;25061;-66
2023/07/26 12:27:16;;;;;;;10.20;2.92;;;;;;;;;;5015553;28;25130;-64
2023/07/26 12:29:42;;;;;;;4.88;2.20;;;;;;;;;;5019998;28;25062;-64
2023/07/26 12:32:13;;;;;;;4.05;2.28;;;;;;;;;;5014804;28;25094;-64
2023/07/26 12:34:42;;;;;;;2.65;2.03;;;;;;;;;;5014804;28;25092;-65
2023/07/26 12:37:08;;;;;;;5.55;2.70;;;;;;;;;;5011328;28;25171;-66
2023/07/26 12:39:34;;;;;;;3.83;2.33;;;;;;;;;;5012402;28;25080;-64
2023/07/26 12:42:00;;;;;;;2.92;1.63;;;;;;;;;;5019237;28;25049;-65
2023/07/26 12:44:28;;;;;;;4.90;1.98;;;;;;;;;;5005652;28;25076;-65
2023/07/26 12:46:54;;;;;;;3.70;2.20;;;;;;;;;;5010518;28;25070;-66
2023/07/26 12:49:20;;;;;;;2.22;1.67;;;;;;;;;;4997986;28;25071;-66
2023/07/26 12:51:50;;;;;;;2.47;1.80;;;;;;;;;;5007359;28;25048;-64
2023/07/26 12:54:16;;;;;;;3.58;2.22;;;;;;;;;;5004410;28;25103;-64
2023/07/26 12:56:42;;;;;;;4.88;2.15;;;;;;;;;;5015152;28;25177;-66
2023/07/26 12:59:08;;;;;;;5.28;2.03;;;;;;;;;;5016490;28;25103;-65
2023/07/26 13:01:34;;;;;;;3.25;1.63;;;;;;;;;;5009564;28;25104;-66
2023/07/26 13:04:00;;;;;;;9.18;3.28;;;;;;;;;;5011514;28;25114;-66
2023/07/26 13:06:26;;;;;;;4.05;2.20;;;;;;;;;;5004316;28;25055;-66
2023/07/26 13:08:52;;;;;;;2.17;1.77;;;;;;;;;;5017283;28;25053;-65
2023/07/26 13:11:18;;;;;;;3.22;2.05;;;;;;;;;;5011584;28;24892;-65
2023/07/26 13:13:44;;;;;;;2.63;1.83;;;;;;;;;;5017505;28;25116;-66
2023/07/26 13:16:10;;;;;;;5.28;2.53;;;;;;;;;;5010535;28;25109;-66
2023/07/26 13:18:36;;;;;;;3.17;2.05;;;;;;;;;;5003459;28;25071;-64
2023/07/26 13:21:02;;;;;;;4.50;2.20;;;;;;;;;;5006522;28;25049;-65
2023/07/26 13:23:28;;;;;;;4.70;2.58;;;;;;;;;;5007973;28;25098;-64
2023/07/26 13:25:54;;;;;;;4.53;2.35;;;;;;;;;;5014122;28;25052;-64
2023/07/26 13:28:20;;;;;;;2.75;1.83;;;;;;;;;;5014289;28;25067;-65
2023/07/26 13:30:47;;;;;;;4.93;2.08;;;;;;;;;;5013957;28;25055;-65
2023/07/26 13:33:13;;;;;;;3.17;2.10;;;;;;;;;;5006630;28;25064;-66
2023/07/26 13:35:39;;;;;;;6.00;1.90;;;;;;;;;;5013155;28;25154;-65
2023/07/26 13:38:05;;;;;;;3.17;2.45;;;;;;;;;;5007119;28;25077;-67
2023/07/26 13:40:31;;;;;;;2.70;1.85;;;;;;;;;;5012727;28;25108;-64
2023/07/26 13:42:57;;;;;;;2.88;1.92;;;;;;;;;;5018718;28;25131;-65
2023/07/26 13:45:23;;;;;;;4.75;2.53;;;;;;;;;;5015489;28;25044;-65
2023/07/26 13:47:49;;;;;;;3.25;2.17;;;;;;;;;;5012241;28;25042;-65
2023/07/26 13:50:16;;;;;;;6.22;2.28;;;;;;;;;;5013508;28;25061;-63
2023/07/26 13:52:42;;;;;;;2.92;1.88;;;;;;;;;;5011776;28;25052;-64
2023/07/26 13:55:08;;;;;;;2.53;1.63;;;;;;;;;;5017152;28;25048;-65
2023/07/26 13:57:34;;;;;;;2.53;1.92;;;;;;;;;;5013894;28;25065;-65
2023/07/26 14:00:00;;;;;;;2.85;1.98;;;;;;;;;;5012536;28;25116;-65
2023/07/26 14:02:26;;;;;;;3.63;2.13;;;;;;;;;;5009852;28;25086;-66
2023/07/26 14:04:52;;;;;;;2.30;1.63;;;;;;;;;;5015127;28;25173;-63
2023/07/26 14:07:18;;;;;;;3.22;1.95;;;;;;;;;;5012392;28;25068;-66
2023/07/26 14:09:45;;;;;;;3.40;2.15;;;;;;;;;;5014987;28;25050;-66
2023/07/26 14:12:10;;;;;;;4.13;2.33;;;;;;;;;;5016114;28;25151;-65
2023/07/26 14:14:37;;;;;;;2.75;2.00;;;;;;;;;;5007248;28;25056;-64
2023/07/26 14:17:04;;;;;;;5.60;2.33;;;;;;;;;;5009441;28;25085;-64
2023/07/26 14:19:30;;;;;;;3.03;1.90;;;;;;;;;;5009450;28;25104;-66
2023/07/26 14:21:56;;;;;;;2.60;1.92;;;;;;;;;;5010355;28;25086;-64
2023/07/26 14:24:22;;;;;;;2.75;1.90;;;;;;;;;;5015042;28;25197;-65
2023/07/26 14:26:48;;;;;;;4.15;1.85;;;;;;;;;;5007213;28;25094;-65
2023/07/26 14:29:14;;;;;;;3.83;2.25;;;;;;;;;;5002369;28;25100;-67
2023/07/26 14:31:40;;;;;;;3.67;2.78;;;;;;;;;;4997246;28;25160;-64
2023/07/26 14:34:06;;;;;;;4.38;1.92;;;;;;;;;;5008439;28;25056;-65
2023/07/26 14:36:32;;;;;;;3.58;2.13;;;;;;;;;;5013894;28;25164;-66